Kay Lee – @kaylee7692xxx 2023.05.07May 16, 2023 2171
Download or WATCH ONLINE (239 files)
Click The Lock To Get The Links
  • kaylee7692xxx - 2021.01.10 2005571514-I love this job... message me for a private video (13.87 MB)
  • kaylee7692xxx - 2021.01.11 2006520347-Taking Daddy's load before heading to Georgia for my (17.92 MB)
  • kaylee7692xxx - 2021.01.12 2007212548-Want to message me for some private videos Currently (270.24 MB)
  • kaylee7692xxx - 2021.01.12 2007463104-Slippery wet fun (160.17 MB)
  • kaylee7692xxx - 2021.01.14 2008688297-Does anyone wanna cum join me DIRTY SWEET (101.85 MB)
  • kaylee7692xxx - 2021.01.20 2012678598-Mmmm My most favorite meal of the day Just got don (1.61 MB)
  • kaylee7692xxx - 2021.01.20 2012678600-Mmmm My most favorite meal of the day Just got don (2 MB)
  • kaylee7692xxx - 2021.01.21 2013092877-More sexy content cumming soon just thought I would (437.52 KB)
  • kaylee7692xxx - 2021.01.21 2013096966-So yummy I've become a pro a sucking cock... thanks (128.9 MB)
  • kaylee7692xxx - 2021.01.22 2014614874-I love getting pounded by Daddy Cum shot on ass Mmh (140.86 MB)
  • kaylee7692xxx - 2021.01.23 2014619798-I love sucking Daddy's big dick (183.28 MB)
  • kaylee7692xxx - 2021.01.26 2017547039-Luv to suck on a big ole dick Mmmhmm (643.1 KB)
  • kaylee7692xxx - 2021.01.26 2017555797-Facial Best part of my beauty regimen (19.73 MB)
  • kaylee7692xxx - 2021.01.31 2021338977-Enjoy Hope yall send me sexy pics and videos of ya J (741.58 MB)
  • kaylee7692xxx - 2021.01.31 2021391415- (13.2 MB)
  • kaylee7692xxx - 2021.02.01 2022028854- (18.44 MB)
  • kaylee7692xxx - 2021.02.04 2024483609-Daddy gets all worked up watching me play with myself (834.43 MB)
  • kaylee7692xxx - 2021.02.07 2026336370-Stream started at 02 07 2021 03 06 am Mommys LIVE Spa (475.56 MB)
  • kaylee7692xxx - 2021.02.11 2027546060-Kay Lee stars in Cheating with Strangers at the Hil (2.01 GB)
  • kaylee7692xxx - 2021.02.14 2023407648-KayLee Gives A Sultry Fire Lit BlowJob Happy Valent (997.49 MB)
  • kaylee7692xxx - 2021.02.16 2033647659-EXCLUSIVE behind the scenes footage from my Valentine (27 MB)
  • kaylee7692xxx - 2021.02.18 2034941699-Kay Lee gets cum covered in this Special 'CandleLight (467.06 MB)
  • kaylee7692xxx - 2021.02.19 2035932131-Exclusively for my Subscribers here on OnlyFans Vale (33.14 MB)
  • kaylee7692xxx - 2021.02.21 2037503183-i hate to see you go but I love to watch you leave B (30.68 MB)
  • kaylee7692xxx - 2021.02.23 2037506575-More Behind The Scenes footage from Gatlinburg TN M (22.1 MB)
  • kaylee7692xxx - 2021.02.25 2040799309-Get the FULL video over at @johnnydepth1 Plenty more (1.39 MB)
  • kaylee7692xxx - 2021.03.02 2037514607-More Behind the Scenes footage To see MarvelLee t (32.25 MB)
  • kaylee7692xxx - 2021.03.05 2037519914-Here we go SOOOOO ready to get FUCKED silly To (48.73 MB)
  • kaylee7692xxx - 2021.03.08 2037525574-I have no problem being the FLUFFER too lol first (41.75 MB)
  • kaylee7692xxx - 2021.03.10 2037527870-And sooooo it begins A GREAT kick off to a great V (26.64 MB)
  • kaylee7692xxx - 2021.03.12 2052295082-BTS footage from my G G shoot with @amy quinn420xxx w (23.02 MB)
  • kaylee7692xxx - 2021.03.12 2052655118-Just got my new toy and I can't wait to use it (100.17 MB)
  • kaylee7692xxx - 2021.03.21 2060718142-Getting ready for a shoot in ATL (16.13 MB)
  • kaylee7692xxx - 2021.04.02 2071835012-Mommy getting all Cleaned up after a wonderful stay i (597.62 MB)
  • kaylee7692xxx - 2021.04.20 2088744014-New Video Releasing TMW on http OnlyFans.com johnny (21.38 MB)
  • kaylee7692xxx - 2021.05.05 2101322592-Hotwife Kay Lee gives a slobbery mouth watering toe (21.09 MB)
  • kaylee7692xxx - 2021.05.15 2110203618-Would you let me suck on you like this Jolly Rancher (27.47 MB)
  • kaylee7692xxx - 2021.08.17 2195974257-Always a good morning with a nice hard morning wood (17.9 MB)
  • kaylee7692xxx - 2021.08.25 2203106533-Mmmmm My favorite cock @johnnydepth1 Thanks for the (75.3 MB)
  • kaylee7692xxx - 2021.08.25 2203173193-About to get my throat destroyed by @johnnydepth1 M (36.03 MB)
  • kaylee7692xxx - 2021.09.01 2209389384-He got cum in my nose it's ok..... cum anywhere y (19.06 MB)
  • kaylee7692xxx - 2021.09.05 2212788070-Anybody that is on a free trial or has rebill turned (1.19 MB)
  • kaylee7692xxx - 2021.09.09 2216743065-Sneak Peek.... scene dropping on @johnnydepth1 page t (1.14 MB)
  • kaylee7692xxx - 2021.09.10 2217420265-@johnnydepth1 destroying my throat Thanks Johnny V (1.01 MB)
  • kaylee7692xxx - 2021.09.10 2217424344-This cock is so mouth watering @johnnydepth1 thanks f (937.43 KB)
  • kaylee7692xxx - 2021.09.16 2222012017- (11.7 MB)
  • kaylee7692xxx - 2021.09.18 2223754551-I definitely enjoyed sucking @throat poker nice cock (671.69 KB)
  • kaylee7692xxx - 2021.09.18 2223888914-@throat poker Nom nom nom lol thank you @johnnydepth1 (1.09 MB)
  • kaylee7692xxx - 2021.09.18 2223896841-Video available on @johnnydepth1 RIGHT NOW Are you (937.43 KB)
  • kaylee7692xxx - 2021.09.23 2228510167-Good morning lovers I had wet dreams about this last (1.14 MB)
  • kaylee7692xxx - 2021.09.25 2229959207-Remember my Snapchat is included FREE with a PAID su (22.12 MB)
  • kaylee7692xxx - 2021.09.27 2231482827-Johnny's worked hard tonight I thought he deserved a (469.1 KB)
  • kaylee7692xxx - 2021.09.27 2231486146-Mmm Perfect way to end the night Night night Lovers (379.18 KB)
  • kaylee7692xxx - 2021.09.27 2231494320-Good morning Lovers Ready for another fantastic day (30.13 MB)
  • kaylee7692xxx - 2021.09.27 2231495984-Who would like to grind up on this Don't keep me wai (24.86 MB)
  • kaylee7692xxx - 2021.09.30 2234539145-Mmm I love sucking dick It's my favorite hobby Can (19.71 MB)
  • kaylee7692xxx - 2021.09.30 2234545399-By the end of the day today I would really like to ge (15.24 MB)
  • kaylee7692xxx - 2021.10.01 2234549167-Luckily because of @johnnydepth1 I got some nice big (32.13 MB)
  • kaylee7692xxx - 2021.10.07 2239315930-Thanks @johnnydepth1 for letting me use your dick as (19.71 MB)
  • kaylee7692xxx - 2021.10.08 2240524731-Good morning Lovers How was your night last night M (1.56 MB)
  • kaylee7692xxx - 2021.10.08 2240535226-Ohhh fuck yessss Me and @johnnydepth1 just came so h (2.01 MB)
  • kaylee7692xxx - 2021.10.13 2246067685-Hope everybody has a wonderful day (1.01 MB)
  • kaylee7692xxx - 2021.10.17 2248430021-Night night babes @johnnydepth1 is gonna have me pin (176.23 MB)
  • kaylee7692xxx - 2021.10.17 2249685574-Watch me getting dressed for a shoot It's hard to (253.39 MB)
  • kaylee7692xxx - 2021.10.18 2248434970-You know I love satisfying any man I can It makes me (44.48 MB)
  • kaylee7692xxx - 2021.10.19 2248442580-Oh @johnnydepth1 You're so sweet Thanks for the gift (44.51 MB)
  • kaylee7692xxx - 2021.10.22 2253491816-I hope you had a great Thick thigh Thursday Find al (8.66 MB)
  • kaylee7692xxx - 2021.11.10 2271129863-Yessss Sorry I haven't posted in a few days Lover (134.39 MB)
  • kaylee7692xxx - 2021.11.14 2274685508- PEW PEW (19.24 MB)
  • kaylee7692xxx - 2021.11.19 2278707265- (245.46 MB)
  • kaylee7692xxx - 2021.11.19 2278708589- (19.71 MB)
  • kaylee7692xxx - 2021.11.19 2278710464-Now that I have super high speed internet I will be p (118.27 MB)
  • kaylee7692xxx - 2021.11.21 2280307507- (88.92 MB)
  • kaylee7692xxx - 2021.11.21 2280308665-Muah (94.53 MB)
  • kaylee7692xxx - 2021.11.23 2282069505- @johnnydepth (201.94 MB)
  • kaylee7692xxx - 2021.11.23 2282069779- @johnnydepth (41.2 MB)
  • kaylee7692xxx - 2021.11.26 2284665254-Clip 1 @johnnydepth (95.52 MB)
  • kaylee7692xxx - 2021.11.26 2284665857-Clip 2 @johnnydepth (89.84 MB)
  • kaylee7692xxx - 2021.11.26 2284666658-Clip 3 @johnnydepth1 (255.79 MB)
  • kaylee7692xxx - 2021.11.29 2287174207- (11.23 MB)
  • kaylee7692xxx - 2021.11.29 2287174680-Getting the tree ready (124.58 MB)
  • kaylee7692xxx - 2021.11.29 2287176365-Part 2 (285.72 MB)
  • kaylee7692xxx - 2021.11.29 2287176995-Cum on my glasses baby (43.27 MB)
  • kaylee7692xxx - 2021.11.29 2287178864-Part 3 (285.72 MB)
  • kaylee7692xxx - 2021.12.05 2292952205-New vid available @johnnydepth1 As I got done camming (134.13 MB)
  • kaylee7692xxx - 2021.12.11 2298900744-Love getting cum on me (30.25 MB)
  • kaylee7692xxx - 2021.12.14 2301360075-$3 content dump Is in affect all the way through New (24.86 MB)
  • kaylee7692xxx - 2021.12.15 2301362105-$3 content dump Is in affect all the way through New (30.12 MB)
  • kaylee7692xxx - 2021.12.17 2301363610-$3 content dump Is in affect all the way through New (176.57 MB)
  • kaylee7692xxx - 2021.12.17 2301366161-$3 content dump Is in affect all the way through New (21.44 MB)
  • kaylee7692xxx - 2021.12.19 2301366864-$3 content dump Is in affect all the way through New (44.48 MB)
  • kaylee7692xxx - 2021.12.19 2305879076-Muah Enjoy babe (741.55 MB)
  • kaylee7692xxx - 2021.12.21 2301370017-$3 content dump Is in affect all the way through New (44.47 MB)
  • kaylee7692xxx - 2021.12.23 2301374964-$3 content dump Is in affect all the way through New (44.46 MB)
  • kaylee7692xxx - 2021.12.25 2301375560-$3 content dump Is in affect all the way through New (44.53 MB)
  • kaylee7692xxx - 2021.12.27 2301376230-$3 content dump Is in affect all the way through New (11.45 MB)
  • kaylee7692xxx - 2021.12.30 2315312863-Facial Queen I love it when I suck a dick so good tha (122.4 MB)
  • kaylee7692xxx - 2021.12.31 2315458462-Nothing better than getting some big cock for supper (89.84 MB)
  • kaylee7692xxx - 2021.12.31 2316535753-NEW VID AVAILABLE ONLYFANS.COM JOHNNYDEPTH1 MILF Kay (99.84 MB)
  • kaylee7692xxx - 2022.01.02 2315462719-I love getting my ass rubbed while giving some bomb a (95.52 MB)
  • kaylee7692xxx - 2022.01.05 2315471176-The main reason I love Doggystyle is the feeling of h (255.79 MB)
  • kaylee7692xxx - 2022.01.06 2315473334-Yes Daddy @johnnydept $3 content dump going on until (30.25 MB)
  • kaylee7692xxx - 2022.01.08 2315475384-Mmmmm Cum covered slut $3 content dump going on un (43.27 MB)
  • kaylee7692xxx - 2022.01.10 2315479303-NEW VID AVAILABLE I love it when King Johnny tells (134.13 MB)
  • kaylee7692xxx - 2022.01.10 2325662126-NEW VID AVAILABLE AT onlyfans.com johnnydepth1 Throat (22.11 MB)
  • kaylee7692xxx - 2022.01.12 2315482683-Getting cum on my face feels amazing Just knowing I (122.4 MB)
  • kaylee7692xxx - 2022.01.12 2327688453-NEW VID DROPPING TONIGHT MILF Kay Lee rewards bully's (97.17 MB)
  • kaylee7692xxx - 2022.01.12 2327688454-NEW VID DROPPING TONIGHT MILF Kay Lee rewards bully's (75.55 MB)
  • kaylee7692xxx - 2022.01.14 2315502107-Peek a boob $3 content dump going on until February. (15.5 MB)
  • kaylee7692xxx - 2022.01.16 2315504295-NEW VID AVAILABLE 69 sitting on Johnny Depths face Fu (9.25 MB)
  • kaylee7692xxx - 2022.01.18 2315506330-NEW VID AVAILABLE Chuck likes to bully my son at scho (53.64 MB)
  • kaylee7692xxx - 2022.01.20 2315507098-Thanks for the help @johnnydepth1 $3 content dump goi (16.04 MB)
  • kaylee7692xxx - 2022.01.22 2315508216-NEW VID AVAILABLE Behind the scenes 69 sitting on J (38.67 MB)
  • kaylee7692xxx - 2022.01.24 2315509804-NEW VID AVAILABLE Taking good care of my son's bully (33.63 MB)
  • kaylee7692xxx - 2022.01.26 2315511848-Thanks for the good dick @johnnydepth1 such a huge lo (9.13 MB)
  • kaylee7692xxx - 2022.01.28 2315513025-Thanks for the good dick @johnnydepth1 I love sucking (13.96 MB)
  • kaylee7692xxx - 2022.01.30 2315514776-Thanks for the good dick @johnnydepth1 such a huge lo (24.29 MB)
  • kaylee7692xxx - 2022.02.17 2366430553-NEW VID available Check dms Milf Kay Lee is feeling (102.44 MB)
  • kaylee7692xxx - 2022.03.24 2402981225-That was a fun night Wish you were here Buy all my (11.67 MB)
  • kaylee7692xxx - 2022.03.26 2404973658-Be sure to check your DM for discounted content You (14.31 MB)
  • kaylee7692xxx - 2022.03.26 2404974329- @jd coxxx (102.44 MB)
  • kaylee7692xxx - 2022.03.29 2407962923-Vids available at onlyfans.com johnnydepth1 (83.63 MB)
  • kaylee7692xxx - 2022.04.02 2412344258- @johnnydepth1 Purchase my vids at onlyfans.com johnn (34.5 MB)
  • kaylee7692xxx - 2022.04.06 2415982376- Get all my vids at onlyfans.com johnnydepth1 (43.28 MB)
  • kaylee7692xxx - 2022.06.04 2477631085- (7.92 MB)
  • kaylee7692xxx - 2022.06.07 2480129007-Mmmm @johnnydepth1 (37.02 MB)
  • kaylee7692xxx - 2022.06.08 2481373166- @johnnydepth1 (43.28 MB)
  • kaylee7692xxx - 2022.06.18 2492425420-MUAH @blackstarent video being released soon right (21.15 MB)
  • kaylee7692xxx - 2022.06.25 2500825462- @blackstarent Purchase full vid at onlyfans.com john (21.14 MB)
  • kaylee7692xxx - 2022.06.26 2500893535-Yes Johnny @johnnydepth1 Purchase all my vids at onl (437.52 KB)
  • kaylee7692xxx - 2022.06.26 2500899852-@johnnydepth1 knows exactly how to treat a dirty litt (2 MB)
  • kaylee7692xxx - 2022.06.27 2500902457-@johnnydepth1 loves to feed me his huge dick (1.61 MB)
  • kaylee7692xxx - 2022.06.28 2500906788-Wow Now that's how I like to wake up @johnnydepth1 (643.1 KB)
  • kaylee7692xxx - 2022.06.28 2500906793-Wow Now that's how I like to wake up @johnnydepth1 (1.03 MB)
  • kaylee7692xxx - 2022.07.18 2526176769-Hey lovers I'm about to start up another content dum (11.32 MB)
  • kaylee7692xxx - 2022.07.18 2526182545-@johnnydepth1 has such a nice cock to suck on (26.92 MB)
  • kaylee7692xxx - 2022.07.19 2526183820-Good morning @johnnydepth1 (22.11 MB)
  • kaylee7692xxx - 2022.07.20 2526187319-Good morning I'm just trying to be a good little hou (20.45 MB)
  • kaylee7692xxx - 2022.07.20 2526192008-This country girl knows how to get muddy Country gir (34.52 MB)
  • kaylee7692xxx - 2022.07.21 2526199488-Good morning I told you a country girl knows how to (11.9 MB)
  • kaylee7692xxx - 2022.07.21 2526202039-About to get some dick from @johnnydepth1 Follow only (28.07 MB)
  • kaylee7692xxx - 2022.07.22 2526208012-Ohhhhhhh shiiiiiiit Follow @johnnydepth1 for more (36.79 MB)
  • kaylee7692xxx - 2022.07.27 2526258194-Morning baby Wanna join me (7.92 MB)
  • kaylee7692xxx - 2022.07.27 2526261912-One thing I love more than anything is a nice big bla (5 MB)
  • kaylee7692xxx - 2022.07.28 2526320036-Morning y'all Check out onlyfans.com johnnydepth1 fo (53.59 MB)
  • kaylee7692xxx - 2022.07.28 2526320842-Any takers on a video call (11.67 MB)
  • kaylee7692xxx - 2022.07.31 2526326363-Mmmm Nothing better than a nice hard cock to enjoy (89.83 MB)
  • kaylee7692xxx - 2022.07.31 2526326785- (8.14 MB)
  • kaylee7692xxx - 2022.08.14 2544774947-Somebody bought these panties Want the next pair (21.17 MB)
  • kaylee7692xxx - 2022.08.23 2571172659-Join me (10.68 MB)
  • kaylee7692xxx - 2022.08.24 2571175234-Just a tease @jd coxxx (18.96 MB)
  • kaylee7692xxx - 2022.08.24 2571176925-I love teasing you @blackstarent (21.14 MB)
  • kaylee7692xxx - 2022.08.25 2571177747- (5.43 MB)
  • kaylee7692xxx - 2022.08.25 2571177748- (4.43 MB)
  • kaylee7692xxx - 2022.08.25 2571180964-Good afternoon I hope this makes your day (19.58 MB)
  • kaylee7692xxx - 2022.08.26 2571184139-Here's another for you to jerk off to before bed Ni (22.41 MB)
  • kaylee7692xxx - 2022.08.28 2571200058-Good evening Hope everyone is nice and horny for me (16.03 MB)
  • kaylee7692xxx - 2022.08.28 2571203899-I love when @johnnydepth1 fucks my throat with his bi (83.61 MB)
  • kaylee7692xxx - 2022.08.29 2571206998-Pleasing my sons bully is my favorite @johnnydepth1 (75.57 MB)
  • kaylee7692xxx - 2022.08.29 2571208522-POW Bull's eye baby @johnnydepth1 (34.52 MB)
  • kaylee7692xxx - 2022.08.30 2571216050-@johnnydepth1 loves unplugging Mommy (16.04 MB)
  • kaylee7692xxx - 2022.08.30 2571217522-@johnnydepth1 gets full coverage when he covers my fa (101.45 MB)
  • kaylee7692xxx - 2022.08.31 2571218749-Fuck yes @johnnydepth1 (30.25 MB)
  • kaylee7692xxx - 2022.08.31 2571220368-Wow that was a huge load Vids available at onlyfans. (24.27 MB)
  • kaylee7692xxx - 2022.09.01 2571222168-Feed me that big cock and destroy my throat @johnnyde (22.97 MB)
  • kaylee7692xxx - 2022.09.01 2571223472-@johnnydepth1 is at it again I'm pretty sure he's c (41.32 MB)
  • kaylee7692xxx - 2022.09.02 2571225141-Here's a freebie for y'all sexy fuckers @johnnydept (245.47 MB)
  • kaylee7692xxx - 2022.09.02 2571226885-Rawr (8.14 MB)
  • kaylee7692xxx - 2022.09.03 2571227978-I'm ready Let's get it baby I want to cum (12.51 MB)
  • kaylee7692xxx - 2022.09.03 2571229642-Fuck me good and I'll back up on that big dick (134.47 MB)
  • kaylee7692xxx - 2022.09.12 2598150349-Wish I was riding your dick like this... (17.03 MB)
  • kaylee7692xxx - 2022.09.16 2603905593- (43.46 MB)
  • kaylee7692xxx - 2022.09.17 2604892839-I'm a horny bitch (48.94 MB)
  • kaylee7692xxx - 2022.09.18 2605268233-NEW VID Check inbox shortly @mattbishopxxx (18.48 MB)
  • kaylee7692xxx - 2022.09.21 2609352379-About to start doing some video specials again soon (9.84 MB)
  • kaylee7692xxx - 2022.09.24 2614272423-Check inbox for video deals Cheap vids available dai (24.59 MB)
  • kaylee7692xxx - 2022.09.27 2617820891- (16.56 MB)
  • kaylee7692xxx - 2022.10.02 2623666803-1st day of spooky month who wants to take care of th (12.72 MB)
  • kaylee7692xxx - 2022.10.12 2637568746- @johnnydepth1 (24.59 MB)
  • kaylee7692xxx - 2022.10.14 2639561802- FUCK ME (13.39 MB)
  • kaylee7692xxx - 2022.10.18 2644227368- @johnnydepth1 (24.96 MB)
  • kaylee7692xxx - 2022.10.24 2651906662- (13.39 MB)
  • kaylee7692xxx - 2022.11.10 2675228028- (7.46 MB)
  • kaylee7692xxx - 2022.12.11 2712933829- @johnnydepth1 his cock is the perfect size to practi (135.66 MB)
  • kaylee7692xxx - 2022.12.12 2611679890-@johnnydepth1 Giving me the good dick in ATL (67.02 MB)
  • kaylee7692xxx - 2023.01.10 2739071593-Ohhh fuuuuck @johnnydepth1 (50.49 MB)
  • kaylee7692xxx - 2023.01.11 2739972929- @johnnydepth1 (16.55 MB)
  • kaylee7692xxx - 2023.01.16 2740089233-Mmmmm @johnnydepth1 (89.79 MB)
  • kaylee7692xxx - 2023.01.18 2746919095-My favorite way to please a man (1.29 MB)
  • kaylee7692xxx - 2023.01.19 2747903636-Sometimes you inhale the dick when he randomly whips (1.97 MB)
  • kaylee7692xxx - 2023.01.22 2750876244-SEX CANDY (51.83 MB)
  • kaylee7692xxx - 2023.01.24 2752651817- (44.42 MB)
  • kaylee7692xxx - 2023.01.25 2753761965- @throat poker (19.17 MB)
  • kaylee7692xxx - 2023.02.07 2765218191-I wish I was bouncing on that rock hard cock (7.88 MB)
  • kaylee7692xxx - 2023.02.08 2741708645-Hit me with your best shot (44.62 MB)
  • kaylee7692xxx - 2023.02.10 2765225120-Getting ready to play (26.04 MB)
  • kaylee7692xxx - 2023.02.10 2765226303-Butt plug plus face fuck... What could be next (18.4 MB)
  • kaylee7692xxx - 2023.02.10 2765227860-Oh fuck yea Fuuuuck me (19.56 MB)
  • kaylee7692xxx - 2023.02.11 2274198628-The last 4 or 5 clips I've posted are of a video that (22.21 MB)
  • kaylee7692xxx - 2023.02.13 2703130754- (9.67 MB)
  • kaylee7692xxx - 2023.02.15 2611835651-I need to suck on this nice hard cock again soon @mr (20.84 MB)
  • kaylee7692xxx - 2023.02.16 2765082376-This one time at band camp... I had a huge cock in my (22.42 MB)
  • kaylee7692xxx - 2023.02.20 2780923541- (7.27 MB)
  • kaylee7692xxx - 2023.02.20 2780927041-Yummy yummy (52.9 MB)
  • kaylee7692xxx - 2023.02.22 2780929723-How to cause an accident 101 (5.66 MB)
  • kaylee7692xxx - 2023.02.23 2780931389- (8.11 MB)
  • kaylee7692xxx - 2023.02.23 2780932443- (24.96 MB)
  • kaylee7692xxx - 2023.02.25 2740100383-Something for you naughty boys (60 MB)
  • kaylee7692xxx - 2023.02.25 2780936596-As an adult I still love to play dress up That won' (95.16 MB)
  • kaylee7692xxx - 2023.02.26 2780937868-Cum give me some dick Daddy (7.65 MB)
  • kaylee7692xxx - 2023.02.27 2616356010-Girls rule Boys drool (9.3 MB)
  • kaylee7692xxx - 2023.02.27 2765234929- (27.22 MB)
  • kaylee7692xxx - 2023.03.03 2756814179- (28.49 MB)
  • kaylee7692xxx - 2023.03.04 2789365587- (25.85 MB)
  • kaylee7692xxx - 2023.03.05 2789365892-Cum fuck me Daddy (4.01 MB)
  • kaylee7692xxx - 2023.03.05 2789366395-I might be a tease but I always make sure you get yo (13.2 MB)
  • kaylee7692xxx - 2023.03.06 2789366680-Kiss it bitch (3.43 MB)
  • kaylee7692xxx - 2023.03.06 2789366944- (48.78 MB)
  • kaylee7692xxx - 2023.03.07 2789367937-Hiking makes me horny (15 MB)
  • kaylee7692xxx - 2023.03.07 2789368239- (3.51 MB)
  • kaylee7692xxx - 2023.03.11 2800053143-Full vid available soon @johnnydepth1 First month sub (7.9 MB)
  • kaylee7692xxx - 2023.03.12 2611834200-Full vid available soon @johnnydepth1 First month sub (18.48 MB)
  • kaylee7692xxx - 2023.03.14 2611819327-Full vid available soon @johnnydepth1 SUBSCRIBE NOW (97.51 MB)
  • kaylee7692xxx - 2023.03.15 2611813698-Full vid available NOW @johnnydepth1 SUBSCRIBE NOW (99.89 MB)
  • kaylee7692xxx - 2023.03.16 2611741203-Full vid available NOW @johnnydepth1 SUBSCRIBE NOW (20.82 MB)
  • kaylee7692xxx - 2023.03.17 2611830236-Full vid available soon @johnnydepth1 SUBSCRIBE NOW (21.14 MB)
  • kaylee7692xxx - 2023.03.18 2611835651-Full vid available soon @johnnydepth1 SUBSCRIBE NOW (20.84 MB)
  • kaylee7692xxx - 2023.03.19 2611705631-Full vid available soon @johnnydepth1 SUBSCRIBE NOW (58.31 MB)
  • kaylee7692xxx - 2023.03.20 2744910285-Full vid available soon @johnnydepth1 SUBSCRIBE NOW (21.97 MB)
  • kaylee7692xxx - 2023.03.21 2590830627-Full vid available soon @johnnydepth1 SUBSCRIBE NOW (21.74 MB)
  • kaylee7692xxx - 2023.03.22 2800059679-Full vid available soon @johnnydepth1 SUBSCRIBE NOW (7.72 MB)
  • kaylee7692xxx - 2023.03.23 2764849878-Full vid available soon @johnnydepth1 SUBSCRIBE NOW (7.9 MB)
  • kaylee7692xxx - 2023.03.24 2800060388-Full vid available soon @johnnydepth1 SUBSCRIBE NOW (7.84 MB)
  • kaylee7692xxx - 2023.03.31 2819295009-Cum 4 Me (13.43 MB)
  • kaylee7692xxx - 2023.04.02 2819298454-You like watching me put meat in my mouth (31.14 MB)
  • kaylee7692xxx - 2023.04.08 2828159758- (34.57 MB)
  • kaylee7692xxx - 2023.04.10 2789365281-Daddy lays it in thick (19.05 MB)
  • kaylee7692xxx - 2023.04.12 2765211603-Breed me Daddy (32.14 MB)
  • kaylee7692xxx - 2023.04.17 2765216258- (19.11 MB)